Terminal Aerodrome Forecast
Issued by NWS Greer, SC

Home | Current Version | Previous Version | Text Only | Print | Product List | Glossary On
Versions: 1 2 3 4 5 6 7 8 9 10 11 12 13 14 15 16 17 18 19 20 21 22 23 24 25 26 27 28 29 30 31 32 33 34 35 36 37 38
000
FTUS42 KGSP 310500
TAFCLT
TAF
KCLT 310532Z 3106/0106 17007KT P6SM SCT070 BKN250
      TEMPO 3111/3113 19003KT 5SM BR BKN060
     FM311300 19004KT P6SM BKN060
     FM311800 19006KT P6SM SCT200 PROB30 3120/3124 4SM TSRA
      BKN040CB=

USA.gov is the U.S. government's official web portal to all federal, state and local government web resources and services.